Stena Suede — ZCEF5 — position and weather

sailwx.info

Track history (hours):
 
Tides and Currents Weather Stations Pressure Air Temp Water Temp Dewpoint Dewpoint Depression Visibility Wind Speed Wind Dir Waves Ship Positions

Stena Suede

Last reported at 2016-Oct-28 16:20 UTC. Time now 2016-Dec-10 05:01 UTC.
Position N 21°39' E 069°01'.
Warning: this ship's position is 42 days out of date.

Length 274 m; draft 14.5 m.

Type: Tanker. MMSI: 310622000.

Date/timePositionNaut miles runAvg speedWind from/ knotsBaromVisibWave heightAir tempDewpointWater temp
2016-Oct-28 16:20N 21°39' E 069°01'910.8
2016-Oct-28 15:33N 21°30' E 069°02'1110.8
2016-Oct-28 14:33N 21°19' E 069°02'5410.9
2016-Oct-28 09:33N 20°25' E 068°58'1111.0
2016-Oct-28 08:33N 20°14' E 068°57'1110.9
2016-Oct-28 07:33N 20°03' E 068°56'7110.1
2016-Oct-28 00:33N 18°54' E 068°43'1110.6
2016-Oct-27 23:33N 18°43' E 068°41'2110.7
2016-Oct-27 21:33N 18°22' E 068°37'17210.7
2016-Oct-27 05:33N 15°32' E 068°10'  
Track history (hours):
 
Tides and Currents Weather Stations Pressure Air Temp Water Temp Dewpoint Dewpoint Depression Visibility Wind Speed Wind Dir Waves Ship Positions

Stena Suede

Last reported at 2016-Oct-28 16:20 UTC. Time now 2016-Dec-10 05:01 UTC.
Position N 21°39' E 069°01'.
Warning: this ship's position is 42 days out of date.

Length 274 m; draft 14.5 m.

Type: Tanker. MMSI: 310622000.

Date/timePositionNaut miles runAvg speedWind from/ knotsBaromVisibWave heightAir tempDewpointWater temp
2016-Oct-28 16:20N 21°39' E 069°01'910.8
2016-Oct-28 15:33N 21°30' E 069°02'1110.8
2016-Oct-28 14:33N 21°19' E 069°02'5410.9
2016-Oct-28 09:33N 20°25' E 068°58'1111.0
2016-Oct-28 08:33N 20°14' E 068°57'1110.9
2016-Oct-28 07:33N 20°03' E 068°56'7110.1
2016-Oct-28 00:33N 18°54' E 068°43'1110.6
2016-Oct-27 23:33N 18°43' E 068°41'2110.7
2016-Oct-27 21:33N 18°22' E 068°37'17210.7
2016-Oct-27 05:33N 15°32' E 068°10'  

Dump ship's entire track history